Impacts METAR Board
IDs:

KDFW - Dallas-Ft Worth Intl, TX, US

Updated at: 1600 UTC 20 Aug 2019
Potential Impact None Slight Moderate High
Time 20/04Z 20/05Z 20/06Z 20/07Z 20/08Z 20/09Z 20/10Z 20/11Z 20/12Z 20/13Z 20/14Z 20/15Z 20/16Z
Temp89 88 87 86 85 84 82 81 80 82 86 89 92
Dewpt69 69 69 68 70 71 71 71 71 72 71 70 71
Altim29.97 29.98 29.97 29.96 29.95 29.95 29.97 29.98 29.99 30.01 30.01 30.01 30.02
VIS10 10 10 10 10 10 10 10 10 10 10 10 10
CIG-- -- -- -- 300 -- -- -- -- -- -- -- --
CoverCLRSCTSCTSCTBKNSCTSCTCLRFEWFEWFEWCLRCLR
FltCatVFRVFRVFRVFRVFRVFRVFRVFRVFRVFRVFRVFRVFR
WX--------------------------
WDir140140150160180200190200200170200210200
WSpd9 9 7 7 8 7 7 4 6 5 8 6 5
WGst-- -- -- -- -- -- -- -- -- -- -- -- --
Raw hourly METARs
KDFW 200353Z 14009KT 10SM CLR 32/21 A2997 RMK AO2 SLP138 T03170206
KDFW 200453Z 14009KT 10SM SCT300 31/21 A2998 RMK AO2 SLP141 T03110206
KDFW 200553Z 15007KT 10SM SCT300 31/21 A2997 RMK AO2 SLP139 T03060206 10361 20306 403780267 50006
KDFW 200653Z 16007KT 10SM SCT300 30/20 A2996 RMK AO2 SLP135 T03000200
KDFW 200753Z 18008KT 10SM BKN300 29/21 A2995 RMK AO2 SLP131 T02940211
KDFW 200853Z 20007KT 10SM SCT300 29/22 A2995 RMK AO2 SLP131 T02890217 55007
KDFW 200953Z 19007KT 10SM SCT300 28/22 A2997 RMK AO2 SLP138 T02780217
KDFW 201053Z 20004KT 10SM CLR 27/22 A2998 RMK AO2 SLP141 T02720217
KDFW 201153Z 20006KT 10SM FEW300 27/22 A2999 RMK AO2 SLP145 T02670217 10306 20261 51014
KDFW 201253Z 17005KT 10SM FEW300 28/22 A3001 RMK AO2 SLP151 T02780222
KDFW 201353Z 20008KT 10SM FEW300 30/22 A3001 RMK AO2 SLP151 T03000217
KDFW 201453Z 21006KT 10SM CLR 32/21 A3001 RMK AO2 SLP153 T03170211 51008
KDFW 201553Z 20005KT 10SM CLR 33/22 A3002 RMK AO2 SLP154 T03330217



Page loaded:  16:37 UTC  |   09:37 AM Pacific  |   10:37 AM Mountain  |   11:37 AM Central  |   12:37 PM Eastern

 

ADVISORIES

FORECASTS

FORECASTS

OBSERVATIONS

USER TOOLS

ABOUT US